Arlington, CO

9:21 PM MDT on July 30, 2014 (GMT -0600)
NE Crowley County (KCOSUGAR1) Elev 4590 ft | 38.45 °N, 103.52 °W | Change Station

Current weather conditions updated 26 seconds ago

Mostly Cloudy
Mostly Cloudy
61.6 °F
Feels Like 61.6 °F
N
0.0
Wind Variable Wind from East
Gusts 0.0 mph

Tomorrow is forecast to be Much Warmer than today.

Today
High -- | Low -- °F
--% Chance of Precip.
Yesterday
High -- | Low -- °F
Precip. -- in
5:53 AM 8:05 PM
Waxing Crescent, 15% visible
Pressure 30.15 in
Visibility 10.0 miles
Clouds Few 3800 ft
Mostly Cloudy 4600 ft
Dew Point 57 °F
Humidity 84%
Rainfall 0.05 in
Snow Depth Not available.
UV 0 out of 12
Pollen .50 out of 12
Air Quality Not available.
Flu Activity Not available.
METAR KLHX 310253Z AUTO 13005KT 10SM FEW038 BKN046 18/15 A3028 RMK AO2 SLP210 T01830150 53006

More Conditions Fewer Conditions

Pressure 30.15 in
Visibility 10.0 miles
Clouds Few 3800 ft
Mostly Cloudy 4600 ft
Dew Point 57 °F
Humidity 84%
Rainfall 0.05 in
Snow Depth Not available.
UV 0 out of 12
Pollen .50 out of 12
Air Quality Not available.
Flu Activity Not available.
METAR KLHX 310253Z AUTO 13005KT 10SM FEW038 BKN046 18/15 A3028 RMK AO2 SLP210 T01830150 53006

More Conditions Fewer Conditions

10-Day Weather Forecast

Almanac

Astronomy

Jul. 30, 2014 Rise Set
Actual Time 5:53 AM MDT 8:05 PM MDT
Civil Twilight 5:24 AM MDT 8:34 PM MDT
Nautical Twilight 4:48 AM MDT 9:10 PM MDT
Astronomical Twilight 4:08 AM MDT 9:50 PM MDT
Moon 9:24 AM MDT (7/30) 9:52 PM MDT (7/30)
Length of Visible Light 15h 10m
Length of Day
14h 11m
Tomorrow will be 1m 49s shorter.
Waxing Crescent, 15% of the Moon is Illuminated
Today
Waxing Crescent
Aug 3
First Quarter
Aug 10
Full
Aug 17
Last Quarter
Aug 25
New

Today's Extremes

State Highs State Lows

Community

WunderPhotos

Upload Photos

1,739,286 photos uploaded!

Nearby

Snow Depth

Station Depth Elevation
Apishapa 0 in 10000 ft
Medano Pass 0 in 9620 ft
South Colony 0 in 10800 ft
Ute Creek 0 in 10650 ft
Trinchera 1 in 10860 ft

Earthquake Activity

City Distance Mag. Time & Date
No recent earthquake activity has been reported nearby.
Minimum magnitude displayed is 2.5.

Coastal Water Temperatures

Place Temperature
No Stations Reporting

Nearby Weather Stations

Station Location Temp. Dew Point Humidity Wind Precip. Elev Updated Type
NE Crowley County, Sugar City, CO 61.6 °F 57 °F 84% East  at  0.0 mph 0.00 in / hr 4590 ft 9:21 PM MDT Rapid Fire
The Ranch, Ordway, CO 60.3 °F 57 °F 87% SE  at  0.0 mph 0.00 in / hr 5020 ft 9:20 PM MDT Normal

Show More Stations Show Fewer Stations